Time;durP1;ratioP1;P1;durP2;ratioP2;P2;SDS_P1;SDS_P2;PMS_P1;PMS_P2;Temp;Humidity;BMP_temperature;BMP_pressure;BME280_temperature;BME280_humidity;BME280_pressure;Samples;Min_cycle;Max_cycle;Signal;HPM_P1;HPM_P2
2022/10/03 00:00:30;;;;;;;7.28;2.50;;;;;;;22.11;47.05;102419.34;5014594;28;20693;-69
2022/10/03 00:03:13;;;;;;;7.13;2.83;;;;;;;22.08;46.82;102423.13;5018890;28;20466;-69
2022/10/03 00:06:21;;;;;;;6.72;1.85;;;;;;;22.07;46.76;102425.94;5015103;28;20044;-69
2022/10/03 00:08:49;;;;;;;6.82;2.47;;;;;;;22.06;46.99;102432.22;5004237;28;20506;-69
2022/10/03 00:11:41;;;;;;;4.57;2.03;;;;;;;22.00;46.78;102429.19;5016893;28;20403;-69
2022/10/03 00:14:12;;;;;;;6.30;2.08;;;;;;;22.02;47.10;102429.88;5014988;28;20046;-69
2022/10/03 00:17:09;;;;;;;8.25;2.10;;;;;;;22.01;46.77;102444.13;5014418;28;20045;-69
2022/10/03 00:19:37;;;;;;;6.00;1.95;;;;;;;22.00;46.81;102442.47;5016424;28;20033;-69
2022/10/03 00:22:18;;;;;;;7.70;2.03;;;;;;;21.99;47.07;102445.25;5015074;28;20064;-69
2022/10/03 00:25:12;;;;;;;11.38;2.80;;;;;;;21.96;47.11;102451.72;5011462;28;20625;-69
2022/10/03 00:27:45;;;;;;;4.57;1.70;;;;;;;21.88;47.11;102446.34;5012373;28;20029;-69
2022/10/03 00:30:19;;;;;;;5.57;1.75;;;;;;;21.90;47.15;102456.78;5013851;28;21597;-69
2022/10/03 00:33:10;;;;;;;8.73;2.70;;;;;;;21.95;46.97;102460.66;5015382;28;20541;-70
2022/10/03 00:35:48;;;;;;;3.85;1.50;;;;;;;21.93;47.12;102467.13;5002104;28;20457;-69
2022/10/03 00:38:22;;;;;;;5.60;1.77;;;;;;;21.90;47.00;102462.97;5012320;28;20091;-69
2022/10/03 00:41:03;;;;;;;8.60;2.65;;;;;;;21.86;47.32;102468.69;5013393;28;20068;-68
2022/10/03 00:44:00;;;;;;;5.78;1.80;;;;;;;21.90;47.21;102472.69;5010610;28;20077;-69
2022/10/03 00:46:38;;;;;;;5.57;2.17;;;;;;;21.87;47.34;102462.41;5015074;28;20037;-69
2022/10/03 00:49:28;;;;;;;4.38;1.75;;;;;;;21.88;47.08;102472.03;5013551;28;20057;-69
2022/10/03 00:52:00;;;;;;;5.10;1.80;;;;;;;21.83;47.09;102466.34;5019540;28;20087;-69
2022/10/03 00:54:47;;;;;;;6.53;2.33;;;;;;;21.84;47.07;102473.31;5014496;28;20575;-69
2022/10/03 00:57:41;;;;;;;4.03;1.83;;;;;;;21.82;47.23;102477.94;5012624;28;20034;-69
2022/10/03 01:00:27;;;;;;;4.13;1.98;;;;;;;21.79;47.53;102472.97;5015468;28;20041;-69
2022/10/03 01:03:14;;;;;;;5.55;1.90;;;;;;;21.81;47.17;102487.72;5015699;28;20048;-69
2022/10/03 01:06:08;;;;;;;5.35;1.90;;;;;;;21.78;47.23;102485.38;5013804;28;20076;-69
2022/10/03 01:08:53;;;;;;;6.38;2.25;;;;;;;21.77;47.19;102485.53;5013971;28;20099;-69
2022/10/03 01:11:37;;;;;;;4.78;1.70;;;;;;;21.80;47.31;102491.38;5016815;28;20098;-69
2022/10/03 01:14:27;;;;;;;6.25;1.80;;;;;;;21.79;47.14;102491.53;5013772;28;20062;-69
2022/10/03 01:17:06;;;;;;;6.18;1.90;;;;;;;21.76;47.34;102491.84;5017546;28;20142;-69
2022/10/03 01:19:42;;;;;;;3.33;1.50;;;;;;;21.73;47.13;102497.44;5012692;28;20521;-69
2022/10/03 01:22:49;;;;;;;4.35;1.58;;;;;;;21.73;47.37;102500.94;5015004;28;20029;-69
2022/10/03 01:25:40;;;;;;;7.35;1.90;;;;;;;21.73;47.52;102498.28;5014373;28;20056;-69
2022/10/03 01:31:17;;;;;;;3.65;1.70;;;;;;;21.67;47.44;102501.50;5012903;28;20672;-69
2022/10/03 01:33:56;;;;;;;3.92;1.50;;;;;;;21.71;47.21;102506.34;5021669;28;20047;-69
2022/10/03 01:36:39;;;;;;;5.53;1.77;;;;;;;21.75;47.20;102508.72;4999821;28;20083;-69
2022/10/03 01:39:14;;;;;;;5.22;1.80;;;;;;;21.71;47.43;102509.00;5012190;28;20067;-69
2022/10/03 01:42:00;;;;;;;6.85;2.20;;;;;;;21.74;47.21;102507.06;5016783;28;20042;-69
2022/10/03 01:45:00;;;;;;;8.15;1.90;;;;;;;21.65;47.51;102504.31;5016785;28;20044;-69
2022/10/03 01:47:46;;;;;;;4.53;2.00;;;;;;;21.69;47.28;102510.16;5012508;28;20149;-69
2022/10/03 01:50:18;;;;;;;3.78;1.98;;;;;;;21.67;47.63;102504.16;5016032;28;20432;-69
2022/10/03 01:53:12;;;;;;;6.63;1.90;;;;;;;21.66;47.56;102507.81;5015600;28;20041;-69
2022/10/03 01:56:05;;;;;;;6.35;1.77;;;;;;;21.64;47.65;102515.91;5010748;28;20114;-69
2022/10/03 01:58:39;;;;;;;4.68;1.40;;;;;;;21.62;47.52;102517.06;5018034;28;20749;-69
2022/10/03 02:01:23;;;;;;;2.85;1.45;;;;;;;21.61;47.76;102510.09;5016045;28;20029;-69
2022/10/03 02:04:13;;;;;;;4.80;1.75;;;;;;;21.63;47.71;102513.41;5019793;28;20029;-69
2022/10/03 02:06:57;;;;;;;3.97;1.50;;;;;;;21.62;47.48;102519.69;5016088;28;20487;-69
2022/10/03 02:09:38;;;;;;;3.40;1.30;;;;;;;21.59;47.45;102515.53;5018132;28;20386;-69
2022/10/03 02:12:28;;;;;;;4.40;1.58;;;;;;;21.59;47.33;102512.88;5016814;28;20041;-69
2022/10/03 02:15:15;;;;;;;5.43;1.75;;;;;;;21.59;47.56;102514.69;5012072;28;20049;-69
2022/10/03 02:18:11;;;;;;;3.20;1.23;;;;;;;21.57;47.56;102509.56;5019164;28;20415;-69
2022/10/03 02:20:44;;;;;;;4.50;1.52;;;;;;;21.56;47.80;102507.06;5017794;28;20048;-70
2022/10/03 02:23:31;;;;;;;8.45;1.52;;;;;;;21.57;47.84;102514.84;5012965;28;20823;-69
2022/10/03 02:26:19;;;;;;;4.93;1.90;;;;;;;21.56;47.83;102507.88;5015339;28;20373;-69
2022/10/03 02:29:22;;;;;;;2.08;1.23;;;;;;;21.57;47.82;102511.38;5013813;28;20564;-69
2022/10/03 02:32:15;;;;;;;3.83;1.75;;;;;;;21.54;47.92;102509.00;5012873;28;20029;-69
2022/10/03 02:34:43;;;;;;;5.13;1.90;;;;;;;21.52;48.01;102519.75;5016371;28;20040;-69
2022/10/03 02:37:15;;;;;;;4.10;1.65;;;;;;;21.51;47.78;102527.84;5017113;28;20041;-69
2022/10/03 02:40:09;;;;;;;6.05;1.80;;;;;;;21.51;47.94;102522.56;5012033;28;20045;-69
2022/10/03 02:42:50;;;;;;;3.10;1.30;;;;;;;21.54;47.59;102516.94;5014937;28;20040;-69
2022/10/03 02:45:54;;;;;;;4.55;1.55;;;;;;;21.52;47.55;102517.09;5009898;28;20041;-69
2022/10/03 02:48:34;;;;;;;4.65;1.83;;;;;;;21.54;47.99;102520.44;4952092;28;20047;-69
2022/10/03 02:50:59;;;;;;;3.83;1.25;;;;;;;21.49;47.92;102524.53;4948458;28;20053;-69
2022/10/03 02:53:43;;;;;;;5.25;1.77;;;;;;;21.50;47.72;102526.19;4986269;28;20053;-69
2022/10/03 02:56:21;;;;;;;3.67;1.33;;;;;;;21.46;47.99;102530.97;5008942;28;20034;-69
2022/10/03 02:59:17;;;;;;;3.95;1.70;;;;;;;21.46;47.86;102533.63;5012716;28;20033;-69
2022/10/03 03:01:51;;;;;;;5.15;1.88;;;;;;;21.44;48.01;102532.09;5010833;28;20135;-69
2022/10/03 03:04:16;;;;;;;5.78;1.50;;;;;;;21.46;47.82;102538.09;5014585;28;20183;-69
2022/10/03 03:07:07;;;;;;;3.33;1.25;;;;;;;21.43;48.00;102531.28;5012177;28;20167;-69
2022/10/03 03:10:09;;;;;;;3.95;1.23;;;;;;;21.47;48.09;102539.75;5015375;28;20021;-68
2022/10/03 03:12:38;;;;;;;4.85;1.60;;;;;;;21.45;48.16;102542.56;5010050;28;20494;-69
2022/10/03 03:15:37;;;;;;;3.70;1.45;;;;;;;21.45;48.02;102537.25;5016184;28;20052;-70
2022/10/03 03:18:24;;;;;;;4.53;1.80;;;;;;;21.43;48.01;102539.22;5016630;28;20036;-69
2022/10/03 03:21:28;;;;;;;3.67;1.17;;;;;;;21.32;47.79;102521.69;4998699;28;20041;-69
2022/10/03 03:24:36;;;;;;;4.75;1.80;;;;;;;21.40;48.22;102540.34;4998600;28;20046;-69
2022/10/03 03:27:14;;;;;;;2.05;1.40;;;;;;;21.39;47.84;102543.16;4986651;28;20123;-71
2022/10/03 03:30:08;;;;;;;4.40;1.52;;;;;;;21.37;47.92;102534.53;5015342;28;20041;-71
2022/10/03 03:33:15;;;;;;;5.35;1.95;;;;;;;21.42;48.17;102538.38;5015975;28;20052;-70
2022/10/03 03:35:46;;;;;;;3.20;0.93;;;;;;;21.41;48.12;102542.03;5015512;28;20057;-68
2022/10/03 03:38:27;;;;;;;4.60;1.58;;;;;;;21.41;47.87;102546.50;5011812;28;20140;-68
2022/10/03 03:41:12;;;;;;;3.88;1.75;;;;;;;21.41;47.93;102543.84;5020072;28;20048;-70
2022/10/03 03:43:59;;;;;;;4.93;1.80;;;;;;;21.40;47.95;102544.81;4993102;28;20120;-70
2022/10/03 03:47:09;;;;;;;6.97;2.05;;;;;;;21.40;47.89;102540.34;5011642;28;20082;-70
2022/10/03 03:49:45;;;;;;;3.17;1.42;;;;;;;21.34;48.40;102542.75;5011331;28;20757;-69
2022/10/03 03:52:26;;;;;;;5.45;1.60;;;;;;;21.38;47.98;102547.63;5009935;28;20083;-70
2022/10/03 03:54:54;;;;;;;4.20;1.70;;;;;;;21.37;48.21;102545.97;5013266;28;20068;-70
2022/10/03 03:57:34;;;;;;;7.38;1.58;;;;;;;21.38;47.95;102549.44;5010708;28;20033;-71
2022/10/03 03:59:59;;;;;;;5.45;1.75;;;;;;;21.37;47.99;102553.06;5013363;28;20038;-70
2022/10/03 04:03:09;;;;;;;4.13;1.42;;;;;;;21.38;47.91;102552.94;4997484;28;20541;-70
2022/10/03 04:05:50;;;;;;;3.00;1.65;;;;;;;21.37;47.99;102558.38;5012550;28;20029;-69
2022/10/03 04:08:27;;;;;;;3.55;1.10;;;;;;;21.35;48.14;102560.31;5011801;28;20029;-69
2022/10/03 04:11:13;;;;;;;3.28;1.08;;;;;;;21.34;48.24;102564.78;5018280;28;20044;-69
2022/10/03 04:13:51;;;;;;;4.05;1.48;;;;;;;21.32;48.00;102558.78;5019555;28;20029;-69
2022/10/03 04:19:36;;;;;;;4.28;1.45;;;;;;;21.34;47.85;102564.78;5016257;28;20689;-70
2022/10/03 04:22:21;;;;;;;2.70;1.10;;;;;;;21.29;48.15;102563.56;5010808;28;20527;-69
2022/10/03 04:25:34;;;;;;;5.78;2.20;;;;;;;21.30;48.34;102567.88;5015440;28;20088;-69
2022/10/03 04:28:09;;;;;;;5.75;1.70;;;;;;;21.32;48.20;102565.91;4981719;28;20083;-70
2022/10/03 04:30:44;;;;;;;1.63;1.02;;;;;;;21.34;48.40;102563.94;5014676;28;20041;-70
2022/10/03 04:33:38;;;;;;;3.78;2.10;;;;;;;21.32;48.28;102565.91;5013463;28;20395;-70
2022/10/03 04:36:14;;;;;;;3.60;1.10;;;;;;;21.31;48.07;102578.31;5014317;28;20037;-70
2022/10/03 04:38:40;;;;;;;4.68;1.40;;;;;;;21.32;48.42;102565.91;5010777;28;20105;-70
2022/10/03 04:41:10;;;;;;;3.15;1.33;;;;;;;21.31;48.04;102567.72;5010579;28;20071;-70
2022/10/03 04:43:42;;;;;;;2.90;1.30;;;;;;;21.31;48.07;102569.53;5012957;28;20048;-70
2022/10/03 04:46:31;;;;;;;4.63;1.73;;;;;;;21.17;48.19;102543.50;5005996;28;20129;-72
2022/10/03 04:49:21;;;;;;;2.43;1.20;;;;;;;21.30;48.01;102574.00;5006684;28;20061;-70
2022/10/03 04:52:17;;;;;;;3.47;1.27;;;;;;;21.24;48.09;102568.44;5010226;28;20042;-70
2022/10/03 04:54:51;;;;;;;4.25;1.55;;;;;;;21.29;48.21;102574.16;5008839;28;20128;-69
2022/10/03 04:57:32;;;;;;;5.38;1.42;;;;;;;21.25;48.36;102567.50;5015698;28;20045;-70
2022/10/03 05:00:28;;;;;;;4.25;1.63;;;;;;;21.27;48.39;102570.84;5017874;28;20842;-70
2022/10/03 05:03:13;;;;;;;4.43;1.40;;;;;;;21.28;48.04;102564.53;5015376;28;20037;-70
2022/10/03 05:05:42;;;;;;;3.90;1.30;;;;;;;21.29;48.20;102564.41;5013309;28;20785;-69
2022/10/03 05:08:27;;;;;;;3.30;1.25;;;;;;;21.28;48.17;102575.16;5015115;28;20104;-70
2022/10/03 05:11:06;;;;;;;5.68;1.55;;;;;;;21.24;48.36;102569.31;5014969;28;20034;-70
2022/10/03 05:14:04;;;;;;;3.35;1.40;;;;;;;21.27;48.09;102568.19;5000746;28;20064;-69
2022/10/03 05:16:48;;;;;;;3.30;1.42;;;;;;;21.23;48.41;102569.44;5016006;28;20029;-70
2022/10/03 05:19:40;;;;;;;4.78;1.98;;;;;;;21.25;48.23;102573.63;5019810;28;20041;-70
2022/10/03 05:22:24;;;;;;;3.17;1.70;;;;;;;21.25;48.13;102570.97;5018199;28;20140;-69
2022/10/03 05:25:03;;;;;;;4.05;1.38;;;;;;;21.27;47.95;102582.25;5016927;28;20068;-70
2022/10/03 05:27:38;;;;;;;4.25;1.40;;;;;;;21.23;48.21;102585.31;5015715;28;20228;-69
2022/10/03 05:30:08;;;;;;;1.55;0.95;;;;;;;21.09;48.39;102568.09;5020717;28;20111;-69
2022/10/03 05:32:54;;;;;;;3.55;1.38;;;;;;;21.17;48.19;102575.28;5017027;28;20045;-70
2022/10/03 05:35:44;;;;;;;2.88;1.20;;;;;;;21.23;48.22;102580.03;5018122;28;20075;-70
2022/10/03 05:38:15;;;;;;;2.72;0.80;;;;;;;21.22;48.18;102583.66;5018685;28;20486;-70
2022/10/03 05:41:00;;;;;;;3.45;1.48;;;;;;;21.19;48.25;102590.09;5018767;28;20041;-70
2022/10/03 05:43:48;;;;;;;2.22;1.10;;;;;;;21.21;48.20;102595.25;5011040;28;20037;-71
2022/10/03 05:46:30;;;;;;;3.08;1.40;;;;;;;21.18;48.22;102596.34;5015226;28;20041;-70
2022/10/03 05:49:25;;;;;;;3.47;1.50;;;;;;;21.19;48.50;102594.56;5016577;28;20068;-70
2022/10/03 05:52:22;;;;;;;5.85;1.88;;;;;;;21.18;48.48;102591.03;5017004;28;20045;-70
2022/10/03 05:55:15;;;;;;;4.53;1.65;;;;;;;21.09;48.12;102586.63;4941655;28;20053;-69
2022/10/03 05:57:59;;;;;;;4.30;1.40;;;;;;;21.17;48.49;102599.13;5003508;28;20054;-69
2022/10/03 06:01:03;;;;;;;3.50;1.38;;;;;;;21.17;48.20;102607.91;5014712;28;20122;-69
2022/10/03 06:03:29;;;;;;;4.15;1.38;;;;;;;21.16;48.05;102606.25;5019709;28;20045;-70
2022/10/03 06:06:23;;;;;;;2.70;1.30;;;;;;;21.14;48.47;102605.56;4998794;28;20508;-69
2022/10/03 06:08:58;;;;;;;3.25;1.50;;;;;;;21.17;48.22;102604.44;5015641;28;20037;-69
2022/10/03 06:11:41;;;;;;;5.32;1.40;;;;;;;21.17;48.37;102607.91;5020126;28;20119;-69
2022/10/03 06:14:34;;;;;;;3.00;1.13;;;;;;;21.13;48.30;102606.53;5018355;28;20063;-70
2022/10/03 06:17:03;;;;;;;3.90;1.13;;;;;;;21.13;48.09;102611.84;5018591;28;20135;-69
2022/10/03 06:19:48;;;;;;;3.15;1.42;;;;;;;21.13;48.37;102620.63;5019120;28;20047;-69
2022/10/03 06:22:32;;;;;;;2.50;1.33;;;;;;;21.14;48.29;102616.16;5014335;28;20041;-70
2022/10/03 06:25:35;;;;;;;2.53;1.10;;;;;;;21.15;48.31;102611.69;5020165;28;20140;-69
2022/10/03 06:28:31;;;;;;;4.82;1.50;;;;;;;21.13;48.24;102615.31;5009095;28;20045;-70
2022/10/03 06:31:24;;;;;;;2.90;1.35;;;;;;;21.13;48.40;102619.78;5013091;28;20030;-70
2022/10/03 06:33:56;;;;;;;4.60;1.55;;;;;;;21.11;48.47;102617.28;5012766;28;20041;-70
2022/10/03 06:36:56;;;;;;;3.25;1.40;;;;;;;21.04;48.30;102610.91;5012846;28;20045;-70
2022/10/03 06:39:47;;;;;;;2.10;1.25;;;;;;;21.12;48.32;102632.19;5020535;28;20095;-70
2022/10/03 06:42:13;;;;;;;2.10;1.08;;;;;;;21.13;48.00;102635.69;4992457;28;20078;-69
2022/10/03 06:45:02;;;;;;;;;;;;;;;21.11;48.37;102630.53;4991018;28;20116;-70
2022/10/03 06:47:46;;;;;;;4.13;1.58;;;;;;;21.10;48.37;102634.16;5013678;28;19917;-69
2022/10/03 06:50:12;;;;;;;2.88;1.35;;;;;;;21.14;48.06;102650.59;5011016;28;20045;-69
2022/10/03 06:53:06;;;;;;;5.03;1.80;;;;;;;21.13;48.44;102651.59;5015189;28;20033;-68
2022/10/03 06:56:23;;;;;;;4.85;1.30;;;;;;;21.14;48.20;102645.31;5014871;28;20064;-70
2022/10/03 06:59:04;;;;;;;3.10;1.27;;;;;;;21.15;48.25;102640.84;4985736;28;20454;-69
2022/10/03 07:02:00;;;;;;;1.90;0.88;;;;;;;21.16;47.95;102642.50;5013353;28;20498;-70
2022/10/03 07:04:44;;;;;;;4.80;1.73;;;;;;;21.15;48.04;102641.66;5012492;28;20037;-70
2022/10/03 07:07:31;;;;;;;2.80;1.23;;;;;;;21.15;48.24;102646.97;5014994;28;20158;-70
2022/10/03 07:10:38;;;;;;;6.22;1.42;;;;;;;21.18;48.19;102645.84;5011485;28;20057;-69
2022/10/03 07:13:14;;;;;;;2.60;1.35;;;;;;;21.20;48.41;102663.28;4976354;28;20053;-69
2022/10/03 07:16:08;;;;;;;6.18;1.60;;;;;;;21.39;47.75;102654.47;5018222;28;20569;-70
2022/10/03 07:19:11;;;;;;;4.53;1.85;;;;;;;21.45;47.54;102656.53;5007135;28;20765;-68
2022/10/03 07:22:23;;;;;;;2.72;1.30;;;;;;;21.51;47.49;102655.91;5015880;28;20386;-68
2022/10/03 07:25:13;;;;;;;4.18;1.50;;;;;;;21.54;47.40;102665.38;5018965;28;20049;-68
2022/10/03 07:28:01;;;;;;;2.13;1.13;;;;;;;21.55;47.20;102659.13;5018724;28;20057;-69
2022/10/03 07:30:49;;;;;;;2.08;1.13;;;;;;;21.60;46.98;102663.00;5018770;28;20071;-69
2022/10/03 07:33:34;;;;;;;2.92;1.58;;;;;;;21.63;46.94;102664.53;5014835;28;20120;-69
2022/10/03 07:39:30;;;;;;;4.38;1.50;;;;;;;21.71;47.21;102664.59;5006188;28;20045;-68
2022/10/03 07:42:14;;;;;;;2.88;1.50;;;;;;;21.75;47.18;102679.25;5018610;28;20610;-69
2022/10/03 07:45:00;;;;;;;1.42;0.77;;;;;;;21.75;46.90;102681.91;5016718;28;20037;-68
2022/10/03 07:48:03;;;;;;;2.17;0.98;;;;;;;21.76;46.88;102688.06;5019396;28;20128;-68
2022/10/03 07:50:50;;;;;;;2.63;0.95;;;;;;;21.81;47.06;102691.91;5019733;28;20067;-69
2022/10/03 07:53:30;;;;;;;4.47;1.40;;;;;;;21.80;47.09;102692.06;5018758;28;20041;-68
2022/10/03 07:56:33;;;;;;;2.30;1.30;;;;;;;21.84;46.79;102693.44;5012504;28;20609;-69
2022/10/03 07:59:04;;;;;;;2.08;1.00;;;;;;;21.86;46.81;102694.13;5015656;28;21814;-69
2022/10/03 08:01:42;;;;;;;5.68;1.50;;;;;;;21.89;46.76;102704.44;5016535;28;20041;-71
2022/10/03 08:04:24;;;;;;;3.95;1.30;;;;;;;21.90;46.94;102703.44;5012777;28;20475;-68
2022/10/03 08:07:22;;;;;;;3.58;1.15;;;;;;;21.90;46.88;102703.44;5014757;28;20475;-71
2022/10/03 08:09:57;;;;;;;6.03;1.60;;;;;;;21.91;47.00;102702.50;5013149;28;20083;-70
2022/10/03 08:12:45;;;;;;;5.63;1.63;;;;;;;21.89;46.98;102702.63;5018751;28;20042;-68
2022/10/03 08:15:26;;;;;;;3.47;1.17;;;;;;;21.91;46.53;102700.69;5016275;28;20041;-69
2022/10/03 08:18:14;;;;;;;3.35;1.30;;;;;;;21.89;46.64;102707.91;5016791;28;20040;-68
2022/10/03 08:21:22;;;;;;;5.03;1.50;;;;;;;21.88;46.49;102706.25;5019884;28;20357;-69
2022/10/03 08:24:06;;;;;;;4.63;1.45;;;;;;;21.89;46.50;102709.72;5012756;28;20046;-69
2022/10/03 08:26:42;;;;;;;3.03;1.30;;;;;;;21.86;46.63;102710.88;4997816;28;20385;-69
2022/10/03 08:29:32;;;;;;;5.03;1.73;;;;;;;21.86;46.71;102716.19;5017984;28;20041;-69
2022/10/03 08:32:22;;;;;;;4.35;1.67;;;;;;;21.89;46.41;102718.53;5019480;28;20041;-68
2022/10/03 08:35:06;;;;;;;4.00;1.67;;;;;;;21.87;46.60;102717.00;5012766;28;20029;-69
2022/10/03 08:38:00;;;;;;;5.20;1.52;;;;;;;21.87;46.76;102724.97;5015623;28;20046;-69
2022/10/03 08:40:55;;;;;;;3.45;1.20;;;;;;;21.87;46.97;102724.97;5011225;28;21924;-69
2022/10/03 08:43:45;;;;;;;3.40;1.60;;;;;;;21.89;47.07;102728.31;5012985;28;20061;-69
2022/10/03 08:47:01;;;;;;;7.47;1.52;;;;;;;21.89;46.83;102721.19;5013945;28;21044;-68
2022/10/03 08:49:29;;;;;;;4.63;1.55;;;;;;;21.90;46.87;102716.72;5013977;28;20733;-69
2022/10/03 08:52:01;;;;;;;4.00;1.58;;;;;;;21.89;46.55;102720.34;5019044;28;20250;-70
2022/10/03 08:54:58;;;;;;;6.93;1.70;;;;;;;21.88;46.75;102716.03;5013175;28;20049;-69
2022/10/03 08:57:35;;;;;;;3.80;1.27;;;;;;;21.89;46.49;102715.88;5001079;28;21887;-70
2022/10/03 09:00:18;;;;;;;3.63;1.75;;;;;;;21.84;46.51;102712.00;5011206;28;20087;-70
2022/10/03 09:03:06;;;;;;;5.63;1.90;;;;;;;21.88;46.74;102722.16;5014223;28;20053;-70
2022/10/03 09:05:43;;;;;;;5.00;1.48;;;;;;;21.85;47.42;102722.47;5016917;28;20126;-70
2022/10/03 09:08:39;;;;;;;4.18;1.48;;;;;;;21.90;47.08;102722.88;5017669;28;20033;-69
2022/10/03 09:11:27;;;;;;;9.27;2.22;;;;;;;21.92;46.97;102728.03;5012422;28;20603;-69
2022/10/03 09:14:02;;;;;;;4.68;1.70;;;;;;;21.95;46.79;102723.25;5017062;28;20049;-69
2022/10/03 09:16:45;;;;;;;4.38;1.20;;;;;;;21.91;46.68;102726.38;5017855;28;20033;-70
2022/10/03 09:19:51;;;;;;;6.07;1.45;;;;;;;21.91;47.17;102732.50;5016548;28;20052;-70
2022/10/03 09:22:26;;;;;;;5.97;2.15;;;;;;;21.88;46.98;102726.63;5018899;28;20473;-70
2022/10/03 09:25:18;;;;;;;5.10;1.50;;;;;;;21.90;46.86;102728.19;5019942;28;20041;-70
2022/10/03 09:28:21;;;;;;;4.60;1.73;;;;;;;21.92;46.79;102730.69;5018084;28;20141;-70
2022/10/03 09:31:07;;;;;;;5.47;1.60;;;;;;;21.88;46.68;102726.63;5017720;28;20038;-70
2022/10/03 09:33:38;;;;;;;5.53;1.65;;;;;;;21.88;46.93;102726.63;5017970;28;20534;-70
2022/10/03 09:36:37;;;;;;;5.30;1.38;;;;;;;21.89;47.21;102723.00;4998491;28;20038;-70
2022/10/03 09:39:32;;;;;;;7.03;1.83;;;;;;;21.91;46.83;102718.41;4970637;28;20057;-70
2022/10/03 09:41:58;;;;;;;4.65;1.92;;;;;;;21.90;47.00;102719.38;5023151;28;20037;-69
2022/10/03 09:44:42;;;;;;;5.20;1.65;;;;;;;21.90;46.85;102717.56;5020073;28;20029;-69
2022/10/03 09:47:22;;;;;;;4.28;1.60;;;;;;;21.89;46.73;102707.09;5019932;28;20486;-70
2022/10/03 09:50:26;;;;;;;6.10;1.52;;;;;;;21.88;46.62;102711.56;5021084;28;20136;-70
2022/10/03 09:53:29;;;;;;;5.78;1.75;;;;;;;21.87;46.62;102709.06;5022624;28;20042;-71
2022/10/03 09:56:03;;;;;;;7.95;2.08;;;;;;;21.91;46.87;102718.41;5022855;28;20399;-73
2022/10/03 09:59:06;;;;;;;5.70;1.83;;;;;;;21.89;46.43;102713.22;5005215;28;20226;-72
2022/10/03 10:01:40;;;;;;;6.20;1.40;;;;;;;21.83;46.35;102708.53;5020238;28;20037;-71
2022/10/03 10:04:27;;;;;;;5.25;1.50;;;;;;;21.90;46.48;102717.56;5022738;28;20033;-71
2022/10/03 10:07:20;;;;;;;5.85;1.60;;;;;;;21.87;46.65;102709.88;5021676;28;20033;-71
2022/10/03 10:09:48;;;;;;;7.60;1.73;;;;;;;21.87;46.45;102712.53;5021967;28;20052;-71
2022/10/03 10:12:47;;;;;;;4.82;1.40;;;;;;;21.89;46.41;102715.03;5019963;28;20048;-70
2022/10/03 10:15:36;;;;;;;5.28;1.70;;;;;;;21.87;46.42;102711.72;5016875;28;20041;-70
2022/10/03 10:18:19;;;;;;;6.45;1.90;;;;;;;21.83;46.69;102703.22;5023012;28;20045;-72
2022/10/03 10:20:57;;;;;;;4.70;1.20;;;;;;;21.88;46.64;102708.91;5018141;28;20054;-70
2022/10/03 10:23:26;;;;;;;4.70;1.55;;;;;;;21.85;46.84;102711.84;5021481;28;20037;-70
2022/10/03 10:26:20;;;;;;;3.90;1.15;;;;;;;21.84;46.75;102707.53;5021702;28;20057;-70
2022/10/03 10:28:51;;;;;;;4.13;1.30;;;;;;;21.90;46.68;102711.41;5021990;28;20025;-71
2022/10/03 10:31:53;;;;;;;6.20;1.70;;;;;;;21.89;46.58;102705.25;5021248;28;20788;-71
2022/10/03 10:35:02;;;;;;;2.00;0.82;;;;;;;21.89;46.33;102705.25;5020980;28;20463;-72
2022/10/03 10:37:43;;;;;;;3.72;1.38;;;;;;;21.88;46.49;102706.25;5019222;28;20952;-72
2022/10/03 10:40:20;;;;;;;2.22;1.13;;;;;;;21.88;46.10;102708.06;5021270;28;20038;-73
2022/10/03 10:43:10;;;;;;;2.40;1.13;;;;;;;21.88;46.34;102700.94;5019202;28;20125;-73
2022/10/03 10:46:07;;;;;;;3.55;1.48;;;;;;;21.89;46.03;102702.63;5019137;28;20395;-72
2022/10/03 10:49:03;;;;;;;4.00;1.33;;;;;;;21.90;46.23;102698.13;5021914;28;20037;-72
2022/10/03 10:52:11;;;;;;;3.88;1.25;;;;;;;21.85;46.45;102701.25;5022026;28;20485;-72
2022/10/03 10:54:54;;;;;;;4.70;1.60;;;;;;;21.86;46.14;102702.06;5018692;28;20415;-72
2022/10/03 10:57:54;;;;;;;3.00;0.98;;;;;;;21.85;46.15;102687.16;5021204;28;20053;-71
2022/10/03 11:00:56;;;;;;;4.95;1.52;;;;;;;21.86;46.26;102700.25;5021843;28;20064;-72
2022/10/03 11:04:07;;;;;;;6.03;1.35;;;;;;;21.83;46.32;102689.97;5021310;28;20037;-71
2022/10/03 11:06:40;;;;;;;6.70;1.88;;;;;;;21.84;45.97;102693.44;5020997;28;20502;-71
2022/10/03 11:09:09;;;;;;;4.93;1.48;;;;;;;21.85;45.92;102695.94;5021460;28;20223;-72
2022/10/03 11:11:56;;;;;;;2.97;0.77;;;;;;;21.87;46.26;102701.09;5019115;28;20033;-73
2022/10/03 11:14:34;;;;;;;3.30;1.27;;;;;;;21.87;46.17;102703.75;5013485;28;20505;-72
2022/10/03 11:17:27;;;;;;;5.10;1.50;;;;;;;21.88;46.03;102702.75;5022211;28;20048;-72
2022/10/03 11:20:14;;;;;;;4.45;1.20;;;;;;;21.84;46.22;102701.41;5018594;28;20030;-72
2022/10/03 11:23:08;;;;;;;4.05;1.25;;;;;;;21.85;46.14;102706.56;5019419;28;20061;-72
2022/10/03 11:25:50;;;;;;;4.07;1.40;;;;;;;21.83;46.17;102697.06;4971339;28;20045;-72
2022/10/03 11:28:34;;;;;;;3.72;1.40;;;;;;;21.86;46.23;102699.44;5020612;28;20033;-72
2022/10/03 11:31:24;;;;;;;3.15;1.33;;;;;;;21.84;46.49;102693.44;5019641;28;20037;-71
2022/10/03 11:34:14;;;;;;;3.22;1.20;;;;;;;21.86;46.13;102700.25;5012964;28;20034;-72
2022/10/03 11:36:49;;;;;;;6.68;1.50;;;;;;;21.85;46.11;102698.59;5019809;28;20080;-72
2022/10/03 11:39:59;;;;;;;4.90;1.42;;;;;;;21.86;46.05;102694.13;5014633;28;20037;-71
2022/10/03 11:42:50;;;;;;;3.90;1.25;;;;;;;21.83;46.38;102695.25;4958309;28;20042;-71
2022/10/03 11:45:25;;;;;;;3.10;1.10;;;;;;;21.87;46.11;102701.09;4981482;28;20558;-73
2022/10/03 11:48:13;;;;;;;3.80;1.58;;;;;;;21.84;46.04;102696.09;5019060;28;20033;-72
2022/10/03 11:50:47;;;;;;;5.35;1.48;;;;;;;21.77;46.29;102689.72;5020019;28;20709;-72
2022/10/03 11:53:18;;;;;;;2.88;1.52;;;;;;;21.77;46.29;102695.84;5023118;28;20040;-72
2022/10/03 11:55:57;;;;;;;3.38;1.00;;;;;;;21.82;46.44;102700.72;5014778;28;20506;-72
2022/10/03 11:58:49;;;;;;;3.80;1.30;;;;;;;21.83;46.58;102699.72;5020405;28;20361;-72
2022/10/03 12:01:17;;;;;;;2.67;0.95;;;;;;;21.84;46.33;102698.75;4993276;28;20049;-72
2022/10/03 12:03:54;;;;;;;2.22;0.98;;;;;;;21.83;46.54;102695.25;5015810;28;20042;-72
2022/10/03 12:09:42;;;;;;;4.32;1.20;;;;;;;21.92;46.08;102685.59;5015707;28;20814;-70
2022/10/03 12:12:44;;;;;;;6.88;2.10;;;;;;;21.98;46.42;102690.28;5011670;28;20052;-70
2022/10/03 12:15:33;;;;;;;4.47;1.08;;;;;;;22.00;46.25;102683.03;5014521;28;20134;-71
2022/10/03 12:18:08;;;;;;;2.30;1.05;;;;;;;22.03;46.19;102694.16;5018356;28;20036;-71
2022/10/03 12:21:10;;;;;;;1.27;1.00;;;;;;;22.05;46.01;102688.72;5011405;28;20500;-71
2022/10/03 12:24:39;;;;;;;2.60;1.52;;;;;;;22.05;46.38;102688.72;4967785;28;20095;-71
2022/10/03 12:27:45;;;;;;;1.40;1.15;;;;;;;22.07;46.32;102680.63;4934112;28;20099;-70
2022/10/03 12:30:17;;;;;;;2.47;0.77;;;;;;;22.06;46.08;102681.59;4933474;28;20094;-71
2022/10/03 12:33:21;;;;;;;2.20;1.00;;;;;;;22.02;46.19;102676.56;5001443;28;20087;-70
2022/10/03 12:35:59;;;;;;;2.00;0.90;;;;;;;22.06;46.23;102681.59;5011245;28;20042;-69
2022/10/03 12:38:50;;;;;;;2.53;0.98;;;;;;;22.08;46.39;102690.25;5017290;28;20041;-69
2022/10/03 12:41:46;;;;;;;2.42;1.13;;;;;;;22.09;46.07;102679.50;5010487;28;20083;-69
2022/10/03 12:44:28;;;;;;;4.45;1.65;;;;;;;22.10;46.07;102678.53;5018175;28;20120;-68
2022/10/03 12:47:26;;;;;;;1.83;0.98;;;;;;;22.09;46.05;102690.13;5015777;28;20037;-69
2022/10/03 12:50:07;;;;;;;3.17;1.00;;;;;;;22.06;46.08;102673.66;5014164;28;20526;-69
2022/10/03 12:52:50;;;;;;;3.55;1.42;;;;;;;22.11;46.16;102685.50;5013983;28;20513;-70
2022/10/03 12:55:25;;;;;;;3.05;1.35;;;;;;;22.13;46.42;102677.38;5010818;28;20171;-69
2022/10/03 12:58:21;;;;;;;2.67;0.77;;;;;;;22.13;46.37;102670.25;5015465;28;20384;-70
2022/10/03 13:01:05;;;;;;;2.90;1.00;;;;;;;22.15;45.96;102673.59;5007443;28;20859;-70
2022/10/03 13:03:56;;;;;;;2.97;1.00;;;;;;;22.10;46.35;102667.91;5017598;28;20112;-70